Time;durP1;ratioP1;P1;durP2;ratioP2;P2;SDS_P1;SDS_P2;PMS_P1;PMS_P2;Temp;Humidity;BMP_temperature;BMP_pressure;BME280_temperature;BME280_humidity;BME280_pressure;Samples;Min_cycle;Max_cycle;Signal;HPM_P1;HPM_P2
2024/03/29 00:00:42;;;;;;;3.33;1.08;;;6.80;99.90;;;;;;4991556;28;20062;-52
2024/03/29 00:03:07;;;;;;;1.52;0.40;;;6.80;99.90;;;;;;4989003;28;20506;-53
2024/03/29 00:05:33;;;;;;;1.40;0.50;;;6.80;99.90;;;;;;4985442;28;20122;-52
2024/03/29 00:07:59;;;;;;;2.97;0.90;;;6.90;99.90;;;;;;4988936;28;20655;-50
2024/03/29 00:10:25;;;;;;;3.63;1.10;;;6.80;99.90;;;;;;4975857;28;20112;-50
2024/03/29 00:12:50;;;;;;;2.88;0.95;;;6.70;99.90;;;;;;4990535;28;20081;-52
2024/03/29 00:15:16;;;;;;;6.10;0.60;;;6.70;99.90;;;;;;4991264;28;20518;-52
2024/03/29 00:17:42;;;;;;;6.28;1.00;;;6.60;99.90;;;;;;4990283;28;20030;-49
2024/03/29 00:20:08;;;;;;;3.42;0.80;;;6.60;99.90;;;;;;4988608;28;20026;-49
2024/03/29 00:22:34;;;;;;;1.83;0.77;;;6.50;99.90;;;;;;4992206;28;20520;-49
2024/03/29 00:24:59;;;;;;;2.90;0.88;;;6.50;99.90;;;;;;4985654;28;20035;-50
2024/03/29 00:27:26;;;;;;;5.25;1.10;;;6.50;99.90;;;;;;4990481;28;20026;-50
2024/03/29 00:29:55;;;;;;;7.35;1.40;;;6.40;99.90;;;;;;4987078;28;20030;-50
2024/03/29 00:32:21;;;;;;;2.45;0.57;;;6.30;99.90;;;;;;4992697;28;20033;-53
2024/03/29 00:34:49;;;;;;;2.10;0.70;;;6.30;99.90;;;;;;4987193;28;20030;-53
2024/03/29 00:37:15;;;;;;;1.05;0.68;;;6.30;99.90;;;;;;4985467;28;20030;-51
2024/03/29 00:39:41;;;;;;;2.47;0.60;;;6.30;99.90;;;;;;4989144;28;20080;-50
2024/03/29 00:42:08;;;;;;;4.75;0.40;;;6.30;99.90;;;;;;4988609;28;20039;-55
2024/03/29 00:44:37;;;;;;;8.00;0.60;;;6.40;99.90;;;;;;4988326;28;20121;-49
2024/03/29 00:47:06;;;;;;;0.57;0.40;;;6.40;99.90;;;;;;4991207;28;20046;-54
2024/03/29 00:49:32;;;;;;;2.55;0.52;;;6.50;99.90;;;;;;4989783;28;20502;-52
2024/03/29 00:51:57;;;;;;;2.28;0.57;;;6.60;99.90;;;;;;4990165;28;20053;-52
2024/03/29 00:54:23;;;;;;;1.45;0.47;;;6.70;99.90;;;;;;4989262;28;20523;-53
2024/03/29 00:56:50;;;;;;;1.90;0.63;;;6.70;99.90;;;;;;4984922;28;20026;-49
2024/03/29 00:59:16;;;;;;;2.40;0.80;;;6.70;99.90;;;;;;4990857;28;20076;-53
2024/03/29 01:01:41;;;;;;;3.83;0.73;;;6.70;99.90;;;;;;4990342;28;20046;-50
2024/03/29 01:04:07;;;;;;;1.73;0.68;;;6.80;99.90;;;;;;4991811;28;20018;-50
2024/03/29 01:06:33;;;;;;;2.42;0.65;;;6.80;99.90;;;;;;4989082;28;20031;-51
2024/03/29 01:09:00;;;;;;;2.15;0.40;;;6.90;99.90;;;;;;4991278;28;20375;-49
2024/03/29 01:11:25;;;;;;;3.15;0.60;;;6.90;99.90;;;;;;4990734;28;20387;-49
2024/03/29 01:13:51;;;;;;;2.50;0.60;;;6.90;99.90;;;;;;4989766;28;20045;-49
2024/03/29 01:16:17;;;;;;;2.97;0.63;;;7.00;99.90;;;;;;4988639;28;20022;-52
2024/03/29 01:18:43;;;;;;;3.42;0.70;;;7.00;99.90;;;;;;4988008;28;20405;-54
2024/03/29 01:21:09;;;;;;;1.63;0.90;;;7.00;99.90;;;;;;4991742;28;20472;-50
2024/03/29 01:23:35;;;;;;;2.13;0.50;;;7.10;99.90;;;;;;4991204;28;20110;-55
2024/03/29 01:26:00;;;;;;;5.50;0.68;;;7.00;99.90;;;;;;4989908;28;20109;-49
2024/03/29 01:28:26;;;;;;;2.00;0.70;;;7.10;99.90;;;;;;4991297;28;20033;-52
2024/03/29 01:30:53;;;;;;;0.93;0.40;;;7.10;99.90;;;;;;4986157;28;20037;-52
2024/03/29 01:33:18;;;;;;;2.28;0.82;;;7.20;99.90;;;;;;4984141;28;20023;-50
2024/03/29 01:35:44;;;;;;;4.10;0.93;;;7.30;99.90;;;;;;4990974;28;20097;-50
2024/03/29 01:38:10;;;;;;;4.90;0.52;;;7.40;99.90;;;;;;4990485;28;20424;-51
2024/03/29 01:40:35;;;;;;;3.40;0.90;;;7.50;99.90;;;;;;4980880;28;20045;-52
2024/03/29 01:43:01;;;;;;;1.17;0.60;;;7.60;99.90;;;;;;5003681;23;20467;-50
2024/03/29 01:45:27;;;;;;;2.50;0.80;;;7.60;99.90;;;;;;5003622;28;20018;-50
2024/03/29 01:47:53;;;;;;;1.08;0.50;;;7.70;99.90;;;;;;5000103;28;20029;-54
2024/03/29 01:50:19;;;;;;;4.13;0.80;;;7.70;99.90;;;;;;5002087;28;20042;-54
2024/03/29 01:52:45;;;;;;;3.88;0.70;;;7.70;99.90;;;;;;5004395;28;20033;-53
2024/03/29 01:55:11;;;;;;;3.75;1.17;;;7.80;99.90;;;;;;4986967;28;20687;-50
2024/03/29 01:57:36;;;;;;;1.58;0.45;;;7.70;99.90;;;;;;4995032;28;20192;-51
2024/03/29 02:00:05;;;;;;;3.92;0.50;;;7.70;99.90;;;;;;4971417;28;20486;-52
2024/03/29 02:02:32;;;;;;;5.45;0.68;;;7.70;99.90;;;;;;4985690;28;20042;-53
2024/03/29 02:04:57;;;;;;;2.58;0.95;;;7.70;99.90;;;;;;4984601;28;20482;-54
2024/03/29 02:07:23;;;;;;;1.52;0.52;;;7.70;99.90;;;;;;4986029;28;20080;-52
2024/03/29 02:09:49;;;;;;;5.03;0.70;;;7.80;99.90;;;;;;4985954;28;20359;-56
2024/03/29 02:12:15;;;;;;;1.60;0.52;;;7.80;99.90;;;;;;4986779;28;21210;-50
2024/03/29 02:14:42;;;;;;;1.45;0.63;;;7.90;99.90;;;;;;4987766;28;20188;-52
2024/03/29 02:17:08;;;;;;;3.33;0.80;;;7.90;99.90;;;;;;4985792;28;20140;-56
2024/03/29 02:19:34;;;;;;;1.27;0.50;;;7.80;99.90;;;;;;4984699;28;20042;-51
2024/03/29 02:22:01;;;;;;;3.25;0.65;;;7.90;99.90;;;;;;4987119;28;20030;-51
2024/03/29 02:24:27;;;;;;;2.78;0.80;;;7.90;99.90;;;;;;4986720;28;20719;-52
2024/03/29 02:26:55;;;;;;;3.20;0.70;;;7.80;99.90;;;;;;4986761;28;20092;-53
2024/03/29 02:29:21;;;;;;;4.35;0.55;;;7.80;99.90;;;;;;4986334;28;20494;-55
2024/03/29 02:31:47;;;;;;;2.13;0.85;;;7.80;99.90;;;;;;4987644;28;20030;-53
2024/03/29 02:34:13;;;;;;;2.88;0.68;;;7.80;99.90;;;;;;4985760;28;20019;-52
2024/03/29 02:36:38;;;;;;;1.08;0.50;;;7.80;99.90;;;;;;4989631;28;20038;-50
2024/03/29 02:39:04;;;;;;;4.22;0.93;;;7.80;99.90;;;;;;4982961;28;20483;-50
2024/03/29 02:41:30;;;;;;;1.50;0.60;;;7.80;99.90;;;;;;4984563;28;20027;-55
2024/03/29 02:43:56;;;;;;;1.20;0.95;;;7.80;99.90;;;;;;4989851;28;20705;-55
2024/03/29 02:46:21;;;;;;;2.42;0.80;;;7.80;99.90;;;;;;4984374;28;20143;-53
2024/03/29 02:48:47;;;;;;;0.93;0.32;;;7.80;99.90;;;;;;4983057;28;20093;-51
2024/03/29 02:51:12;;;;;;;2.08;0.45;;;7.80;99.90;;;;;;4987703;28;20090;-51
2024/03/29 02:53:38;;;;;;;3.17;0.95;;;7.80;99.90;;;;;;4974819;28;20134;-53
2024/03/29 02:56:07;;;;;;;9.02;1.58;;;7.80;99.90;;;;;;4988484;28;20033;-53
2024/03/29 02:58:34;;;;;;;2.25;0.60;;;7.80;99.90;;;;;;4987252;28;20038;-56
2024/03/29 03:01:06;;;;;;;4.68;0.70;;;7.80;99.90;;;;;;4981801;28;20042;-56
2024/03/29 03:03:32;;;;;;;7.95;0.82;;;7.80;99.90;;;;;;4991283;28;20754;-52
2024/03/29 03:05:57;;;;;;;3.65;0.90;;;7.80;99.90;;;;;;4992439;28;20081;-52
2024/03/29 03:11:07;;;;;;;3.45;0.70;;;7.80;99.90;;;;;;4990932;28;20041;-53
2024/03/29 03:13:33;;;;;;;1.08;0.60;;;7.80;99.90;;;;;;4987566;28;20034;-51
2024/03/29 03:15:58;;;;;;;2.30;0.70;;;7.90;99.90;;;;;;4974691;28;20049;-50
2024/03/29 03:18:24;;;;;;;6.45;0.82;;;7.80;99.90;;;;;;4993640;28;20108;-54
2024/03/29 03:20:53;;;;;;;4.30;1.05;;;7.90;99.90;;;;;;4991546;28;20022;-52
2024/03/29 03:23:18;;;;;;;4.45;0.75;;;7.80;99.90;;;;;;4991037;28;20113;-50
2024/03/29 03:25:44;;;;;;;1.65;0.60;;;7.80;99.90;;;;;;4991201;28;20105;-50
2024/03/29 03:28:10;;;;;;;2.55;1.20;;;7.80;99.90;;;;;;4993744;28;20089;-52
2024/03/29 03:30:41;;;;;;;2.22;0.63;;;7.80;99.90;;;;;;4992875;28;20041;-51
2024/03/29 03:33:07;;;;;;;2.47;0.63;;;7.80;99.90;;;;;;4993756;28;20034;-53
2024/03/29 03:35:33;;;;;;;5.90;0.75;;;7.80;99.90;;;;;;4992503;28;20405;-50
2024/03/29 03:37:58;;;;;;;2.08;0.63;;;7.80;99.90;;;;;;4993446;28;20041;-50
2024/03/29 03:40:24;;;;;;;2.20;0.93;;;7.80;99.90;;;;;;4993429;28;20030;-49
2024/03/29 03:42:49;;;;;;;3.65;0.98;;;7.80;99.90;;;;;;4992330;28;20035;-51
2024/03/29 03:45:15;;;;;;;4.63;1.13;;;7.80;99.90;;;;;;4993789;28;20455;-49
2024/03/29 03:47:40;;;;;;;4.45;0.68;;;7.90;99.90;;;;;;4975645;28;20019;-52
2024/03/29 03:50:06;;;;;;;5.18;0.90;;;7.90;99.90;;;;;;4993617;28;21260;-51
2024/03/29 03:52:32;;;;;;;4.38;0.98;;;7.90;99.90;;;;;;4987409;28;20038;-51
2024/03/29 03:54:57;;;;;;;6.22;0.88;;;8.00;99.90;;;;;;4989950;28;20081;-49
2024/03/29 03:57:23;;;;;;;3.13;0.88;;;7.90;99.90;;;;;;4988051;28;20018;-51
2024/03/29 03:59:51;;;;;;;0.40;0.30;;;8.00;99.90;;;;;;4985669;28;20034;-52
2024/03/29 04:02:17;;;;;;;2.72;0.82;;;8.00;99.90;;;;;;4989335;28;20027;-51
2024/03/29 04:04:42;;;;;;;2.38;1.05;;;8.00;99.90;;;;;;4988632;28;20505;-54
2024/03/29 04:07:08;;;;;;;1.33;0.40;;;8.10;99.90;;;;;;4992980;28;20390;-50
2024/03/29 04:09:33;;;;;;;1.85;0.55;;;8.00;99.90;;;;;;4986592;28;20091;-50
2024/03/29 04:11:59;;;;;;;4.07;0.50;;;8.10;99.90;;;;;;4992392;28;20038;-51
2024/03/29 04:14:24;;;;;;;5.00;0.52;;;8.10;99.90;;;;;;4993259;28;20479;-55
2024/03/29 04:16:50;;;;;;;9.65;0.52;;;8.10;99.90;;;;;;4985960;28;20038;-54
2024/03/29 04:19:15;;;;;;;3.00;0.68;;;8.20;99.90;;;;;;4986778;28;20089;-51
2024/03/29 04:21:41;;;;;;;6.50;0.77;;;8.20;99.90;;;;;;4992144;28;20030;-55
2024/03/29 04:24:09;;;;;;;5.03;0.77;;;8.20;99.90;;;;;;4993135;28;20023;-51
2024/03/29 04:26:36;;;;;;;3.17;0.80;;;8.20;99.90;;;;;;4975660;28;20026;-53
2024/03/29 04:29:02;;;;;;;1.23;0.60;;;8.20;99.90;;;;;;4990571;28;20030;-51
2024/03/29 04:31:27;;;;;;;1.20;0.50;;;8.20;99.90;;;;;;4989883;28;20487;-48
2024/03/29 04:33:53;;;;;;;4.05;1.38;;;8.20;99.90;;;;;;4990810;28;20026;-49
2024/03/29 04:36:18;;;;;;;1.85;0.68;;;8.30;99.90;;;;;;4990534;28;20034;-50
2024/03/29 04:38:44;;;;;;;5.93;0.82;;;8.30;99.90;;;;;;4987415;28;20034;-51
2024/03/29 04:41:09;;;;;;;1.73;0.50;;;8.20;99.90;;;;;;4990487;28;20457;-53
2024/03/29 04:43:35;;;;;;;3.85;0.82;;;8.20;99.90;;;;;;4989197;28;20468;-55
2024/03/29 04:46:09;;;;;;;2.60;0.47;;;8.20;99.90;;;;;;4988382;28;20029;-51
2024/03/29 04:48:38;;;;;;;6.75;0.60;;;8.20;99.90;;;;;;4987472;28;20029;-50
2024/03/29 04:51:04;;;;;;;3.80;0.70;;;8.10;99.90;;;;;;4988291;28;20513;-51
2024/03/29 04:53:30;;;;;;;2.42;0.90;;;8.10;99.90;;;;;;4987284;28;20395;-52
2024/03/29 04:55:59;;;;;;;3.35;0.70;;;8.10;99.90;;;;;;4988109;28;20034;-49
2024/03/29 04:58:28;;;;;;;4.55;0.57;;;8.20;99.90;;;;;;4984849;28;20046;-54
2024/03/29 05:00:54;;;;;;;1.90;1.20;;;8.20;99.90;;;;;;4966373;28;20125;-52
2024/03/29 05:03:20;;;;;;;4.93;0.65;;;8.20;99.90;;;;;;4988249;28;20044;-54
2024/03/29 05:05:47;;;;;;;3.45;0.60;;;8.20;99.90;;;;;;4990144;28;20631;-53
2024/03/29 05:08:13;;;;;;;2.45;0.80;;;8.30;99.90;;;;;;4984233;28;20272;-50
2024/03/29 05:10:42;;;;;;;3.80;0.77;;;8.30;99.90;;;;;;4970006;28;20027;-51
2024/03/29 05:13:08;;;;;;;3.58;0.75;;;8.30;99.90;;;;;;4987604;28;20037;-49
2024/03/29 05:15:33;;;;;;;3.15;0.88;;;8.30;99.90;;;;;;4986357;28;20034;-48
2024/03/29 05:17:59;;;;;;;2.00;0.70;;;8.30;99.90;;;;;;4986529;28;20039;-55
2024/03/29 05:20:25;;;;;;;3.03;0.77;;;8.30;99.90;;;;;;4989883;28;20081;-50
2024/03/29 05:22:50;;;;;;;3.63;0.68;;;8.30;99.90;;;;;;4970922;28;20026;-50
2024/03/29 05:25:16;;;;;;;2.72;0.90;;;8.30;99.90;;;;;;4987661;28;21416;-50
2024/03/29 05:27:41;;;;;;;1.52;0.80;;;8.30;99.90;;;;;;4987455;28;20034;-50
2024/03/29 05:30:09;;;;;;;2.28;0.68;;;8.20;99.90;;;;;;4984413;28;20423;-54
2024/03/29 05:32:35;;;;;;;9.60;0.90;;;8.20;99.90;;;;;;4987796;28;20038;-50
2024/03/29 05:35:00;;;;;;;4.47;0.88;;;8.20;99.90;;;;;;4985665;28;20038;-49
2024/03/29 05:37:26;;;;;;;1.45;0.55;;;8.20;99.90;;;;;;4989471;28;20042;-49
2024/03/29 05:39:58;;;;;;;9.52;1.05;;;8.20;99.90;;;;;;4986184;28;20030;-51
2024/03/29 05:42:27;;;;;;;2.80;0.95;;;8.20;99.90;;;;;;4982915;28;20451;-53
2024/03/29 05:44:53;;;;;;;2.45;1.00;;;8.20;99.90;;;;;;4984238;28;20026;-50
2024/03/29 05:47:19;;;;;;;3.53;1.05;;;8.20;99.90;;;;;;4985064;28;20081;-51
2024/03/29 05:49:44;;;;;;;6.38;0.90;;;8.20;99.90;;;;;;4989132;28;20493;-49
2024/03/29 05:52:13;;;;;;;7.32;1.58;;;8.20;99.90;;;;;;4985906;28;20411;-54
2024/03/29 05:54:39;;;;;;;4.30;0.88;;;8.20;99.90;;;;;;4986397;28;20449;-52
2024/03/29 05:57:06;;;;;;;2.33;0.98;;;8.20;99.90;;;;;;4984254;28;20023;-51
2024/03/29 05:59:32;;;;;;;3.10;0.52;;;8.20;99.90;;;;;;4985203;28;20569;-48
2024/03/29 06:01:58;;;;;;;8.48;0.63;;;8.30;99.90;;;;;;4984025;28;20041;-48
2024/03/29 06:04:30;;;;;;;2.55;0.77;;;8.30;99.90;;;;;;4984070;28;20022;-52
2024/03/29 06:06:57;;;;;;;3.53;0.90;;;8.30;99.90;;;;;;4990390;28;20105;-49
2024/03/29 06:09:23;;;;;;;1.48;0.77;;;8.30;99.90;;;;;;4989958;28;20030;-51
2024/03/29 06:11:48;;;;;;;2.08;0.60;;;8.20;99.90;;;;;;4989353;28;20048;-49
2024/03/29 06:19:42;;;;;;;1.60;0.60;;;8.30;99.90;;;;;;4991452;28;20394;-53
2024/03/29 06:22:09;;;;;;;2.45;0.70;;;8.40;99.90;;;;;;4990737;28;20034;-50
2024/03/29 06:24:34;;;;;;;11.75;0.90;;;8.40;99.90;;;;;;4990698;28;20560;-48
2024/03/29 06:27:00;;;;;;;4.65;1.73;;;8.40;99.90;;;;;;4988342;28;20050;-55
2024/03/29 06:29:26;;;;;;;2.05;0.70;;;8.40;99.90;;;;;;4975867;28;20116;-53
2024/03/29 06:31:52;;;;;;;1.90;0.85;;;8.40;99.90;;;;;;4994454;28;20026;-54
2024/03/29 06:34:17;;;;;;;1.58;0.57;;;8.40;99.90;;;;;;4994064;28;20030;-50
2024/03/29 06:36:43;;;;;;;2.03;0.50;;;8.40;99.90;;;;;;4993871;28;20038;-50
2024/03/29 06:39:08;;;;;;;4.18;0.90;;;8.40;99.90;;;;;;4991163;28;20038;-53
2024/03/29 06:41:34;;;;;;;2.47;0.52;;;8.40;99.90;;;;;;4992560;28;20064;-54
2024/03/29 06:44:00;;;;;;;5.70;0.93;;;8.50;99.90;;;;;;4989657;28;20441;-48
2024/03/29 06:46:26;;;;;;;2.67;1.10;;;8.50;99.90;;;;;;4989992;28;20033;-51
2024/03/29 06:48:51;;;;;;;4.45;1.02;;;8.50;99.90;;;;;;4989535;28;20040;-53
2024/03/29 06:51:18;;;;;;;3.05;1.10;;;8.60;99.90;;;;;;4988711;28;20101;-48
2024/03/29 06:53:43;;;;;;;5.57;0.90;;;8.70;99.90;;;;;;4989780;28;20513;-52
2024/03/29 06:56:09;;;;;;;5.18;0.65;;;8.70;99.90;;;;;;4990711;28;20030;-51
2024/03/29 06:58:34;;;;;;;1.67;0.65;;;8.70;99.90;;;;;;4988890;28;20032;-52
2024/03/29 07:01:00;;;;;;;3.05;0.75;;;8.80;99.90;;;;;;4979142;28;21218;-57
2024/03/29 07:03:26;;;;;;;3.85;0.88;;;8.80;99.90;;;;;;4990411;28;20034;-51
2024/03/29 07:05:51;;;;;;;3.88;0.93;;;8.90;99.90;;;;;;4989238;28;20054;-51
2024/03/29 07:08:17;;;;;;;3.40;0.80;;;9.10;99.90;;;;;;4989700;28;20030;-51
2024/03/29 07:10:42;;;;;;;0.85;0.50;;;9.20;99.90;;;;;;4988670;28;20077;-52
2024/03/29 07:13:09;;;;;;;1.58;0.80;;;9.40;99.90;;;;;;4988564;28;20441;-48
2024/03/29 07:15:35;;;;;;;1.98;0.60;;;9.40;99.90;;;;;;4990114;28;20030;-51
2024/03/29 07:18:03;;;;;;;2.03;0.60;;;9.50;99.90;;;;;;4992583;28;20049;-49
2024/03/29 07:20:29;;;;;;;2.42;1.15;;;9.60;99.90;;;;;;4994022;28;20084;-50
2024/03/29 07:22:54;;;;;;;6.20;0.82;;;9.70;99.90;;;;;;4993337;28;20030;-50
2024/03/29 07:25:20;;;;;;;2.30;0.75;;;9.80;99.90;;;;;;4992328;28;20474;-52
2024/03/29 07:27:46;;;;;;;2.30;0.85;;;9.90;99.90;;;;;;4991550;28;20057;-52
2024/03/29 07:30:13;;;;;;;2.83;0.75;;;9.90;99.90;;;;;;4985202;28;20038;-51
2024/03/29 07:32:39;;;;;;;2.63;0.90;;;10.00;99.90;;;;;;4993333;28;20483;-48
2024/03/29 07:35:05;;;;;;;4.78;1.00;;;10.00;99.90;;;;;;4994129;28;20030;-51
2024/03/29 07:37:31;;;;;;;3.28;0.80;;;10.10;99.90;;;;;;4993943;28;20569;-50
2024/03/29 07:39:56;;;;;;;3.38;0.77;;;10.10;99.90;;;;;;4992815;28;20141;-54
2024/03/29 07:42:22;;;;;;;4.43;0.80;;;10.20;99.90;;;;;;4992477;28;20412;-53
2024/03/29 07:44:48;;;;;;;2.47;1.00;;;10.20;99.90;;;;;;5019362;22;20137;-58
2024/03/29 07:47:14;;;;;;;3.88;1.10;;;10.20;99.90;;;;;;5003685;28;20034;-59
2024/03/29 07:49:40;;;;;;;3.80;1.30;;;10.20;99.90;;;;;;4992146;28;20105;-56
2024/03/29 07:52:06;;;;;;;4.47;1.13;;;10.20;99.90;;;;;;4991513;28;20433;-57
2024/03/29 07:54:35;;;;;;;2.22;0.82;;;10.20;99.90;;;;;;4988952;28;20027;-56
2024/03/29 07:57:01;;;;;;;3.97;1.38;;;10.20;99.90;;;;;;4989762;28;20026;-57
2024/03/29 07:59:27;;;;;;;2.75;0.88;;;10.20;99.90;;;;;;4992897;28;20022;-54
2024/03/29 08:01:54;;;;;;;1.33;0.80;;;10.20;99.90;;;;;;4983173;28;20034;-59
2024/03/29 08:04:20;;;;;;;1.80;0.98;;;10.30;99.90;;;;;;4987953;28;20109;-58
2024/03/29 08:06:45;;;;;;;2.83;1.20;;;10.30;99.90;;;;;;4992048;28;20057;-58
2024/03/29 08:09:13;;;;;;;2.95;0.90;;;10.40;99.90;;;;;;4984632;28;20343;-61
2024/03/29 08:11:39;;;;;;;2.40;1.00;;;10.50;99.90;;;;;;4981497;28;20686;-58
2024/03/29 08:14:05;;;;;;;1.92;0.93;;;10.50;99.90;;;;;;4985460;28;20106;-57
2024/03/29 08:16:30;;;;;;;3.20;0.68;;;10.50;99.90;;;;;;4992044;28;20045;-58
2024/03/29 08:18:56;;;;;;;2.03;0.70;;;10.50;99.90;;;;;;4985505;28;20034;-58
2024/03/29 08:21:22;;;;;;;2.35;0.75;;;10.50;99.90;;;;;;4987470;28;20026;-59
2024/03/29 08:23:48;;;;;;;1.13;0.70;;;10.50;99.90;;;;;;4992271;28;20476;-58
2024/03/29 08:26:13;;;;;;;1.15;0.60;;;10.50;99.90;;;;;;4982861;28;20034;-57
2024/03/29 08:28:39;;;;;;;2.45;1.02;;;10.50;99.90;;;;;;4983294;28;20173;-58
2024/03/29 08:31:08;;;;;;;1.23;0.70;;;10.50;99.90;;;;;;4990585;28;20041;-58
2024/03/29 08:33:37;;;;;;;1.13;0.43;;;10.70;99.90;;;;;;4989229;28;20494;-59
2024/03/29 08:36:06;;;;;;;1.83;0.70;;;10.60;99.90;;;;;;4991638;28;20041;-57
2024/03/29 08:38:32;;;;;;;2.25;0.65;;;10.70;99.90;;;;;;4984592;28;20482;-58
2024/03/29 08:40:57;;;;;;;1.70;0.55;;;10.90;99.90;;;;;;4985820;28;20114;-58
2024/03/29 08:43:23;;;;;;;2.03;0.38;;;11.10;99.90;;;;;;4989521;28;20030;-60
2024/03/29 08:45:49;;;;;;;3.13;0.70;;;11.20;99.90;;;;;;4985925;28;20026;-58
2024/03/29 08:48:15;;;;;;;0.75;0.55;;;11.30;99.90;;;;;;4987477;28;20022;-60
2024/03/29 08:50:40;;;;;;;1.45;0.63;;;11.30;99.90;;;;;;4982215;28;20031;-58
2024/03/29 08:53:07;;;;;;;3.25;0.55;;;11.40;99.90;;;;;;4984846;28;20042;-58
2024/03/29 08:55:33;;;;;;;2.97;0.82;;;11.50;99.90;;;;;;4988470;28;20030;-59
2024/03/29 08:58:00;;;;;;;2.80;0.88;;;11.50;99.90;;;;;;4986882;28;20452;-58
2024/03/29 09:00:27;;;;;;;0.65;0.45;;;11.50;99.90;;;;;;4988368;28;20064;-57
2024/03/29 09:02:52;;;;;;;2.47;0.50;;;11.50;99.90;;;;;;4987699;28;20026;-58
2024/03/29 09:05:18;;;;;;;1.67;0.40;;;11.50;99.90;;;;;;4984879;28;20092;-59
2024/03/29 09:07:43;;;;;;;3.55;0.63;;;11.50;99.90;;;;;;4987827;28;20045;-59
2024/03/29 09:10:09;;;;;;;1.35;0.63;;;11.60;99.90;;;;;;4987205;28;20089;-56
2024/03/29 09:12:34;;;;;;;1.10;0.55;;;11.60;99.90;;;;;;4987334;28;20088;-58
2024/03/29 09:15:01;;;;;;;3.25;1.08;;;11.60;99.90;;;;;;4986650;28;20027;-59
2024/03/29 09:17:26;;;;;;;8.98;5.00;;;11.60;99.90;;;;;;4994455;28;20031;-58
2024/03/29 09:19:53;;;;;;;16.23;5.88;;;11.60;99.90;;;;;;4985748;28;20029;-58
2024/03/29 09:22:18;;;;;;;28.50;12.07;;;11.60;99.90;;;;;;4986258;28;20506;-58
2024/03/29 09:24:44;;;;;;;13.07;5.70;;;11.50;99.90;;;;;;4988919;28;20037;-59
2024/03/29 09:27:10;;;;;;;28.77;11.02;;;11.60;99.90;;;;;;4984978;28;20061;-58
2024/03/29 09:29:35;;;;;;;14.60;5.53;;;11.70;99.90;;;;;;4987056;28;20039;-59
2024/03/29 09:32:04;;;;;;;75.07;31.10;;;11.80;99.90;;;;;;4986735;28;20450;-59
2024/03/29 09:34:30;;;;;;;35.03;17.73;;;11.80;99.90;;;;;;4986259;28;20153;-57
2024/03/29 09:36:57;;;;;;;8.05;3.13;;;11.90;99.90;;;;;;4987087;28;20397;-58
2024/03/29 09:39:23;;;;;;;2.78;1.55;;;12.10;99.90;;;;;;4986569;28;20058;-63
2024/03/29 09:41:50;;;;;;;1.75;1.00;;;12.00;99.90;;;;;;4987737;28;20065;-57
2024/03/29 09:44:17;;;;;;;2.92;1.35;;;12.10;99.90;;;;;;4987417;28;20084;-59
2024/03/29 09:46:43;;;;;;;2.47;0.90;;;12.00;99.90;;;;;;4987374;28;20030;-57
2024/03/29 09:49:10;;;;;;;1.52;0.73;;;12.20;99.90;;;;;;4986403;28;20085;-58
2024/03/29 09:51:37;;;;;;;5.47;0.73;;;12.20;99.90;;;;;;4987399;28;20109;-59
2024/03/29 09:54:07;;;;;;;1.70;0.75;;;12.40;99.90;;;;;;4986075;28;20034;-59
2024/03/29 09:56:34;;;;;;;1.73;0.90;;;12.60;99.90;;;;;;4985216;28;20026;-59
2024/03/29 09:59:01;;;;;;;5.15;2.10;;;12.90;99.90;;;;;;4986719;28;20035;-59
2024/03/29 10:01:27;;;;;;;4.03;2.15;;;13.30;99.90;;;;;;4988754;28;20050;-56
2024/03/29 10:03:54;;;;;;;1.33;0.70;;;13.60;99.90;;;;;;4990248;28;20693;-59
2024/03/29 10:06:23;;;;;;;1.13;0.70;;;13.70;99.90;;;;;;4989379;28;20029;-58
2024/03/29 10:08:49;;;;;;;1.23;0.85;;;13.90;99.90;;;;;;4990143;28;20045;-59
2024/03/29 10:11:19;;;;;;;1.17;0.88;;;14.00;99.90;;;;;;4988445;28;20042;-59
2024/03/29 10:13:45;;;;;;;5.93;2.85;;;14.00;99.90;;;;;;4990087;28;20030;-58
2024/03/29 10:16:12;;;;;;;2.67;1.35;;;14.20;99.90;;;;;;4989701;28;20034;-59
2024/03/29 10:18:40;;;;;;;1.48;0.90;;;14.20;99.90;;;;;;4990088;28;20688;-59
2024/03/29 10:21:07;;;;;;;1.77;1.02;;;14.30;99.90;;;;;;4990641;28;20062;-58
2024/03/29 10:23:35;;;;;;;1.58;1.00;;;14.40;99.90;;;;;;4991379;28;20034;-59
2024/03/29 10:26:01;;;;;;;2.47;1.40;;;14.50;99.90;;;;;;4990365;28;20034;-59
2024/03/29 10:28:35;;;;;;;2.13;1.48;;;14.40;99.90;;;;;;4990645;28;20855;-59
2024/03/29 10:31:03;;;;;;;0.88;0.68;;;14.70;99.90;;;;;;4989105;28;20054;-58
2024/03/29 10:33:30;;;;;;;3.45;1.30;;;14.70;99.90;;;;;;4990526;28;20038;-59
2024/03/29 10:35:56;;;;;;;2.22;0.95;;;15.00;99.90;;;;;;4989682;28;20034;-59
2024/03/29 10:38:24;;;;;;;6.55;1.83;;;15.30;99.90;;;;;;4989882;28;20034;-58
2024/03/29 10:40:51;;;;;;;6.28;2.40;;;15.40;99.90;;;;;;4991162;28;20069;-59
2024/03/29 10:43:19;;;;;;;1.00;0.60;;;15.60;99.90;;;;;;4991295;28;20446;-58
2024/03/29 10:45:48;;;;;;;2.20;1.58;;;15.70;99.90;;;;;;4990680;28;20422;-58
2024/03/29 10:48:16;;;;;;;1.67;1.02;;;15.90;99.90;;;;;;4989552;28;20022;-57
2024/03/29 10:50:43;;;;;;;3.33;2.00;;;15.70;99.90;;;;;;4989332;28;20028;-57
2024/03/29 10:53:11;;;;;;;1.17;0.80;;;15.60;99.90;;;;;;4989786;28;20874;-59
2024/03/29 10:55:37;;;;;;;5.75;2.17;;;15.50;99.90;;;;;;4989434;28;20030;-59
2024/03/29 10:58:04;;;;;;;1.63;1.20;;;15.50;99.90;;;;;;4967527;28;20046;-57
2024/03/29 11:00:37;;;;;;;4.65;2.35;;;15.60;99.90;;;;;;4997904;28;20034;-59
2024/03/29 11:03:15;;;;;;;0.73;0.70;;;15.70;99.90;;;;;;4989421;28;20049;-59
2024/03/29 11:05:49;;;;;;;1.02;0.88;;;15.60;99.90;;;;;;4990677;28;20898;-58
2024/03/29 11:08:27;;;;;;;1.85;0.82;;;15.60;99.90;;;;;;4990367;28;20057;-59
2024/03/29 11:10:56;;;;;;;1.40;0.88;;;15.30;99.90;;;;;;4988581;28;20540;-59
2024/03/29 11:13:32;;;;;;;1.23;0.75;;;15.10;99.90;;;;;;4988363;28;20670;-59
2024/03/29 11:16:00;;;;;;;1.77;0.73;;;15.00;99.90;;;;;;4988327;28;20081;-59
2024/03/29 11:18:29;;;;;;;1.10;0.68;;;14.90;99.90;;;;;;4989817;28;20033;-59
2024/03/29 11:20:57;;;;;;;0.98;0.70;;;14.90;99.90;;;;;;4990501;28;20561;-58
2024/03/29 11:23:24;;;;;;;1.20;0.95;;;14.90;99.90;;;;;;4990519;28;20030;-58
2024/03/29 11:25:53;;;;;;;2.15;1.17;;;15.00;99.90;;;;;;4989433;28;20405;-59
2024/03/29 11:28:34;;;;;;;3.85;1.70;;;15.10;99.90;;;;;;4985296;28;20117;-59
2024/03/29 11:31:05;;;;;;;1.60;1.02;;;15.30;99.90;;;;;;4989179;28;20041;-57
2024/03/29 11:33:48;;;;;;;5.00;1.17;;;15.40;99.90;;;;;;4989998;28;20039;-59
2024/03/29 11:36:13;;;;;;;1.15;0.93;;;15.60;99.90;;;;;;4987793;28;20169;-59
2024/03/29 11:38:40;;;;;;;4.63;2.10;;;15.70;99.90;;;;;;4987133;28;20117;-59
2024/03/29 11:41:13;;;;;;;10.52;4.00;;;15.70;99.90;;;;;;4988790;28;20069;-58
2024/03/29 11:43:40;;;;;;;8.38;3.70;;;15.60;99.90;;;;;;4989553;28;20092;-58
2024/03/29 11:46:10;;;;;;;3.75;1.77;;;15.60;99.90;;;;;;4988824;28;20084;-59
2024/03/29 11:48:36;;;;;;;2.13;1.02;;;15.60;99.90;;;;;;4989112;28;20034;-59
2024/03/29 11:51:09;;;;;;;1.42;0.88;;;15.20;99.90;;;;;;4988499;28;20054;-58
2024/03/29 11:53:35;;;;;;;2.37;1.10;;;14.90;99.90;;;;;;4990234;28;20453;-59
2024/03/29 11:56:02;;;;;;;22.25;7.00;;;14.70;99.90;;;;;;4978845;28;20289;-62
2024/03/29 11:58:29;;;;;;;9.55;4.68;;;14.60;99.90;;;;;;4985458;28;20438;-59
2024/03/29 12:00:56;;;;;;;16.30;6.22;;;14.30;99.90;;;;;;4989101;28;20038;-58
2024/03/29 12:03:27;;;;;;;2.35;1.15;;;14.10;99.90;;;;;;4986802;28;20487;-58
2024/03/29 12:05:57;;;;;;;9.55;3.20;;;14.00;99.90;;;;;;4987891;28;20422;-59
2024/03/29 12:08:22;;;;;;;26.00;8.73;;;14.00;99.90;;;;;;4988791;28;20544;-58
2024/03/29 12:10:48;;;;;;;6.22;1.55;;;14.00;99.90;;;;;;4987194;28;20041;-59
2024/03/29 12:13:16;;;;;;;8.40;2.95;;;14.00;99.90;;;;;;4987155;28;20494;-58
2024/03/29 12:15:42;;;;;;;8.98;3.22;;;14.10;99.90;;;;;;4992857;28;20026;-58
2024/03/29 12:18:07;;;;;;;9.55;2.85;;;13.80;99.90;;;;;;4986491;28;20508;-59
2024/03/29 12:20:34;;;;;;;8.95;3.70;;;13.70;99.90;;;;;;4985879;28;20034;-59
2024/03/29 12:23:01;;;;;;;5.93;2.65;;;13.50;99.90;;;;;;4989472;28;20121;-58
2024/03/29 12:25:28;;;;;;;2.95;1.00;;;13.40;99.90;;;;;;4988675;28;20038;-59
2024/03/29 12:27:54;;;;;;;16.83;5.35;;;13.20;99.90;;;;;;4988483;28;20029;-59
2024/03/29 12:30:20;;;;;;;2.63;1.20;;;13.20;99.90;;;;;;4987207;28;20110;-59
2024/03/29 12:32:46;;;;;;;0.70;0.50;;;13.20;99.90;;;;;;4986137;28;20133;-59
2024/03/29 12:35:14;;;;;;;20.00;5.28;;;13.20;99.90;;;;;;4987930;28;20409;-58
2024/03/29 12:37:51;;;;;;;16.20;4.72;;;13.30;99.90;;;;;;5001738;28;20042;-59
2024/03/29 12:40:23;;;;;;;9.93;3.63;;;13.40;99.90;;;;;;4987163;28;20030;-60
2024/03/29 12:42:50;;;;;;;5.13;1.40;;;13.40;99.90;;;;;;4984910;28;20030;-59
2024/03/29 12:45:19;;;;;;;3.63;1.30;;;13.50;99.90;;;;;;4988338;28;20398;-59
2024/03/29 12:47:47;;;;;;;3.55;1.30;;;13.50;99.90;;;;;;4988191;28;20511;-59
2024/03/29 12:50:19;;;;;;;4.30;1.45;;;13.60;99.90;;;;;;4986695;28;20030;-58
2024/03/29 12:52:44;;;;;;;3.60;1.58;;;13.60;99.90;;;;;;4987750;28;20038;-59
2024/03/29 12:55:10;;;;;;;4.53;1.25;;;13.50;99.90;;;;;;4985867;28;20045;-58
2024/03/29 12:57:37;;;;;;;6.07;1.70;;;13.40;99.90;;;;;;4973099;28;20096;-59